createdAt,value
2017-04-26T00:00:39.777Z,79.84
2017-04-26T00:01:20.680Z,79.74
2017-04-26T00:02:01.541Z,79.55
2017-04-26T00:02:42.395Z,79.65
2017-04-26T00:03:23.258Z,80.51
2017-04-26T00:04:04.124Z,80.98
2017-04-26T00:04:45.004Z,80.22
2017-04-26T00:05:25.874Z,80.98
2017-04-26T00:06:06.726Z,80.88
2017-04-26T00:06:47.605Z,80.69
2017-04-26T00:07:28.501Z,80.13
2017-04-26T00:08:09.331Z,80.41
2017-04-26T00:08:50.209Z,81.07
2017-04-26T00:09:31.088Z,81.45
2017-04-26T00:10:11.959Z,81.93
2017-04-26T00:10:52.908Z,81.65
2017-04-26T00:11:33.777Z,81.65
2017-04-26T00:12:14.635Z,81.07
2017-04-26T00:12:55.506Z,80.88
2017-04-26T00:13:36.381Z,81.45
2017-04-26T00:14:17.255Z,81.45
2017-04-26T00:14:58.124Z,80.98
2017-04-26T00:15:39.025Z,80.88
2017-04-26T00:16:19.868Z,81.07
2017-04-26T00:17:00.735Z,80.88
2017-04-26T00:17:41.573Z,80.6
2017-04-26T00:18:22.432Z,80.03
2017-04-26T00:19:03.300Z,79.94
2017-04-26T00:19:44.171Z,79.65
2017-04-26T00:20:25.066Z,79.46
2017-04-26T00:21:05.982Z,79.46
2017-04-26T00:21:46.870Z,78.8
2017-04-26T00:22:27.740Z,79.74
2017-04-26T00:23:08.627Z,79.65
2017-04-26T00:23:49.503Z,80.22
2017-04-26T00:24:30.370Z,80.41
2017-04-26T00:25:11.241Z,80.79
2017-04-26T00:25:52.130Z,80.79
2017-04-26T00:26:33.018Z,80.69
2017-04-26T00:27:13.948Z,80.69
2017-04-26T00:27:54.836Z,81.26
2017-04-26T00:28:35.709Z,81.65
2017-04-26T00:29:16.560Z,81.36
2017-04-26T00:29:57.418Z,80.69
2017-04-26T00:30:38.287Z,80.69
2017-04-26T00:31:19.140Z,81.17
2017-04-26T00:32:00.019Z,80.6
2017-04-26T00:32:40.861Z,80.51
2017-04-26T00:33:21.728Z,80.03
2017-04-26T00:34:02.656Z,80.6
2017-04-26T00:34:43.548Z,80.88
2017-04-26T00:35:24.446Z,81.17
2017-04-26T00:36:05.307Z,81.55
2017-04-26T00:36:46.186Z,81.36
2017-04-26T00:37:27.058Z,80.98
2017-04-26T00:38:07.922Z,81.65
2017-04-26T00:38:48.784Z,81.07
2017-04-26T00:39:29.658Z,80.98
2017-04-26T00:40:10.503Z,80.51
2017-04-26T00:40:51.379Z,80.32
2017-04-26T00:41:32.240Z,81.07
2017-04-26T00:42:13.104Z,80.51
2017-04-26T00:42:53.962Z,79.84
2017-04-26T00:43:34.836Z,79.84
2017-04-26T00:44:15.717Z,80.13
2017-04-26T00:44:56.593Z,80.41
2017-04-26T00:45:37.477Z,80.37
2017-04-26T00:46:18.322Z,80.6
2017-04-26T00:46:59.172Z,80.32
2017-04-26T00:47:40.052Z,80.32
2017-04-26T00:48:20.915Z,80.56
2017-04-26T00:49:01.779Z,80.56
2017-04-26T00:49:42.667Z,80.46
2017-04-26T00:50:23.500Z,80.03
2017-04-26T00:51:04.349Z,79.99
2017-04-26T00:51:45.228Z,80.27
2017-04-26T00:52:26.080Z,80.37
2017-04-26T00:53:06.976Z,80.46
2017-04-26T00:53:47.830Z,80.37
2017-04-26T00:54:28.696Z,80.94
2017-04-26T00:55:09.551Z,80.94
2017-04-26T00:55:50.440Z,80.75
2017-04-26T00:56:31.269Z,80.75
2017-04-26T00:57:12.134Z,80.84
2017-04-26T00:57:53.001Z,80.46
2017-04-26T00:58:33.884Z,80.27
2017-04-26T00:59:14.714Z,79.99
2017-04-26T00:59:55.597Z,79.9
2017-04-26T01:00:36.447Z,80.46
2017-04-26T01:01:17.323Z,80.27
2017-04-26T01:01:58.182Z,80.94
2017-04-26T01:02:39.050Z,80.75
2017-04-26T01:03:19.927Z,80.84
2017-04-26T01:04:00.779Z,80.75
2017-04-26T01:04:41.657Z,80.75
2017-04-26T01:05:22.547Z,81.04
2017-04-26T01:06:03.418Z,80.56
2017-04-26T01:06:44.281Z,80.27
2017-04-26T01:07:25.162Z,81.04
2017-04-26T01:08:06.062Z,80.27
2017-04-26T01:08:46.923Z,80.46
2017-04-26T01:09:27.781Z,80.18
2017-04-26T01:10:08.675Z,80.37
2017-04-26T01:10:49.538Z,80.65
2017-04-26T01:11:30.419Z,80.56
2017-04-26T01:12:11.289Z,80.84
2017-04-26T01:12:52.178Z,81.13
2017-04-26T01:13:33.043Z,81.04
2017-04-26T01:14:13.925Z,80.65
2017-04-26T01:14:54.811Z,81.51
2017-04-26T01:15:35.680Z,81.32
2017-04-26T01:16:16.553Z,81.41
2017-04-26T01:16:57.520Z,81.6
2017-04-26T01:17:38.386Z,81.04
2017-04-26T01:18:19.247Z,81.41
2017-04-26T01:19:00.103Z,81.23
2017-04-26T01:19:40.990Z,81.41
2017-04-26T01:20:21.871Z,81.7
2017-04-26T01:21:02.764Z,81.79
2017-04-26T01:21:43.624Z,81.98
2017-04-26T01:22:24.488Z,82.08
2017-04-26T01:23:05.352Z,82.17
2017-04-26T01:23:46.269Z,81.6
2017-04-26T01:24:27.137Z,81.51
2017-04-26T01:25:08.010Z,81.51
2017-04-26T01:25:48.869Z,81.98
2017-04-26T01:26:29.741Z,82.27
2017-04-26T01:27:10.616Z,81.88
2017-04-26T01:27:51.461Z,81.98
2017-04-26T01:28:32.329Z,82.08
2017-04-26T01:29:13.210Z,82.08
2017-04-26T01:29:54.057Z,82.17
2017-04-26T01:30:34.925Z,82.46
2017-04-26T01:31:15.841Z,82.74
2017-04-26T01:31:56.702Z,82.27
2017-04-26T01:32:37.583Z,82.36
2017-04-26T01:33:18.432Z,82.27
2017-04-26T01:33:59.307Z,82.08
2017-04-26T01:34:40.191Z,81.88
2017-04-26T01:35:21.069Z,81.98
2017-04-26T01:36:01.962Z,81.98
2017-04-26T01:36:42.861Z,81.51
2017-04-26T01:37:23.721Z,81.6
2017-04-26T01:38:04.589Z,81.6
2017-04-26T01:38:45.458Z,81.79
2017-04-26T01:39:26.345Z,82.08
2017-04-26T01:40:07.245Z,82.36
2017-04-26T01:40:48.107Z,82.27
2017-04-26T01:41:29.008Z,81.98
2017-04-26T01:42:09.851Z,82.08
2017-04-26T01:42:50.709Z,82.27
2017-04-26T01:43:31.646Z,82.08
2017-04-26T01:44:12.483Z,81.88
2017-04-26T01:44:53.309Z,81.51
2017-04-26T01:45:34.180Z,81.51
2017-04-26T01:46:15.051Z,81.51
2017-04-26T01:46:55.936Z,81.7
2017-04-26T01:47:36.819Z,81.88
2017-04-26T01:48:17.722Z,81.88
2017-04-26T01:48:58.604Z,81.88
2017-04-26T01:49:39.420Z,82.17
2017-04-26T01:50:20.325Z,82.84
2017-04-26T01:51:01.189Z,82.93
2017-04-26T01:51:42.044Z,82.08
2017-04-26T01:52:22.896Z,82.65
2017-04-26T01:53:03.788Z,82.74
2017-04-26T01:53:44.690Z,82.84
2017-04-26T01:54:25.580Z,82.93
2017-04-26T01:55:06.410Z,82.46
2017-04-26T01:55:47.277Z,82.93
2017-04-26T01:56:28.150Z,83.31
2017-04-26T01:57:09.003Z,83.4
2017-04-26T01:57:49.850Z,83.78
2017-04-26T01:58:30.715Z,84.17
2017-04-26T01:59:11.574Z,84.45
2017-04-26T01:59:52.438Z,84.17
2017-04-26T02:00:33.289Z,84.36
2017-04-26T02:01:14.168Z,84.26
2017-04-26T02:01:55.068Z,84.64
2017-04-26T02:02:35.905Z,84.83
2017-04-26T02:03:16.759Z,84.45
2017-04-26T02:03:57.625Z,84.17
2017-04-26T02:04:38.500Z,84.36
2017-04-26T02:05:19.371Z,84.45
2017-04-26T02:06:00.230Z,84.07
2017-04-26T02:06:41.116Z,83.59
2017-04-26T02:07:21.978Z,83.59
2017-04-26T02:08:02.861Z,83.59
2017-04-26T02:08:43.727Z,83.59
2017-04-26T02:09:24.601Z,83.59
2017-04-26T02:10:05.511Z,83.97
2017-04-26T02:10:46.354Z,84.36
2017-04-26T02:11:27.211Z,85.3
2017-04-26T02:12:08.078Z,84.74
2017-04-26T02:12:48.979Z,84.92
2017-04-26T02:13:29.877Z,84.92
2017-04-26T02:14:10.743Z,84.45
2017-04-26T02:14:51.639Z,84.74
2017-04-26T02:15:32.523Z,84.07
2017-04-26T02:16:13.395Z,84.83
2017-04-26T02:16:54.279Z,83.88
2017-04-26T02:17:35.142Z,84.07
2017-04-26T02:18:16.013Z,83.97
2017-04-26T02:18:56.865Z,83.5
2017-04-26T02:19:37.740Z,83.5
2017-04-26T02:20:18.618Z,84.07
2017-04-26T02:20:59.487Z,84.07
2017-04-26T02:21:40.352Z,83.59
2017-04-26T02:22:21.240Z,84.07
2017-04-26T02:23:02.092Z,83.97
2017-04-26T02:23:43.007Z,84.26
2017-04-26T02:24:23.846Z,84.26
2017-04-26T02:25:04.726Z,84.17
2017-04-26T02:25:45.564Z,84.45
2017-04-26T02:26:26.439Z,84.36
2017-04-26T02:27:07.303Z,84.55
2017-04-26T02:27:48.191Z,84.45
2017-04-26T02:28:29.045Z,84.26
2017-04-26T02:29:09.920Z,84.17
2017-04-26T02:29:50.796Z,84.17
2017-04-26T02:30:31.639Z,84.17
2017-04-26T02:31:12.532Z,84.83
2017-04-26T02:31:53.390Z,85.3
2017-04-26T02:32:34.243Z,84.83
2017-04-26T02:33:15.110Z,84.92
2017-04-26T02:33:56.004Z,84.55
2017-04-26T02:34:36.850Z,84.83
2017-04-26T02:35:17.727Z,84.64
2017-04-26T02:35:58.603Z,84.74
2017-04-26T02:36:39.459Z,84.74
2017-04-26T02:37:20.391Z,84.92
2017-04-26T02:38:01.255Z,84.92
2017-04-26T02:38:42.107Z,85.3
2017-04-26T02:39:22.974Z,84.92
2017-04-26T02:40:03.868Z,84.83
2017-04-26T02:40:44.726Z,85.21
2017-04-26T02:41:25.605Z,85.49
2017-04-26T02:42:06.452Z,85.4
2017-04-26T02:42:47.351Z,86.21
2017-04-26T02:43:28.189Z,86.35
2017-04-26T02:44:09.037Z,86.44
2017-04-26T02:44:49.933Z,86.44
2017-04-26T03:18:56.644Z,87.49
2017-04-26T03:22:30.804Z,87.73
2017-04-26T03:23:11.682Z,87.45
2017-04-26T03:23:57.386Z,87.96
2017-04-26T03:49:00.127Z,88.2
2017-04-26T03:49:41.021Z,88.77
2017-04-26T03:50:21.888Z,88.72
2017-04-26T04:12:26.123Z,88.81
2017-04-26T04:13:07.043Z,89
2017-04-26T04:13:47.903Z,88.72
2017-04-26T04:25:18.198Z,89.76
2017-04-26T04:25:59.057Z,89.72
2017-04-26T04:26:39.919Z,89.86
2017-04-26T04:27:27.403Z,89.86
2017-04-26T04:28:08.292Z,90.24
2017-04-26T04:28:49.149Z,89.67
2017-04-26T04:29:30.004Z,90
2017-04-26T04:30:10.859Z,90.62
2017-04-26T04:30:53.369Z,89.95
2017-04-26T04:31:34.221Z,90.38
2017-04-26T04:32:15.135Z,90.48
2017-04-26T04:32:56.002Z,90.14
2017-04-26T04:33:36.888Z,90
2017-04-26T04:34:17.749Z,90.52
2017-04-26T04:34:58.584Z,90.76
2017-04-26T04:35:39.444Z,90.57
2017-04-26T04:36:20.315Z,91.33
2017-04-26T04:37:01.179Z,90.86
2017-04-26T04:37:42.037Z,91.24
2017-04-26T04:38:22.990Z,91.24
2017-04-26T04:39:03.849Z,90.95
2017-04-26T04:39:44.713Z,91.71
2017-04-26T04:40:25.569Z,91.24
2017-04-26T04:45:30.040Z,91.42
2017-04-26T04:46:10.931Z,91.33
2017-04-26T05:04:52.663Z,92.18
2017-04-26T05:05:33.532Z,92.09
2017-04-26T05:06:14.392Z,92.09
2017-04-26T05:06:55.255Z,91.8
2017-04-26T05:07:36.136Z,90.9
2017-04-26T05:08:17.021Z,91.28
2017-04-26T05:08:57.903Z,91.24
2017-04-26T05:09:38.766Z,90.57
2017-04-26T05:10:19.639Z,90.52
2017-04-26T05:11:00.501Z,90.9
2017-04-26T05:11:41.369Z,90.62
2017-04-26T05:12:22.227Z,90.71
2017-04-26T05:13:03.100Z,90.05
2017-04-26T05:13:43.960Z,90.62
2017-04-26T05:14:24.838Z,91
2017-04-26T05:15:05.744Z,90.05
2017-04-26T05:15:46.603Z,90.24
2017-04-26T05:16:27.473Z,91
2017-04-26T05:17:08.329Z,90.81
2017-04-26T05:17:49.176Z,90.71
2017-04-26T05:18:30.054Z,90.33
2017-04-26T05:19:10.925Z,90.43
2017-04-26T05:19:51.780Z,90.43
2017-04-26T05:20:32.710Z,90.24
2017-04-26T05:21:13.590Z,90.05
2017-04-26T05:21:54.469Z,90.62
2017-04-26T05:22:40.209Z,90.05
2017-04-26T05:23:21.086Z,90.43
2017-04-26T05:24:01.992Z,90.33
2017-04-26T05:24:42.941Z,90.24
2017-04-26T05:25:23.819Z,89.86
2017-04-26T05:26:04.671Z,90.52
2017-04-26T05:26:45.542Z,90.14
2017-04-26T05:27:26.402Z,90.24
2017-04-26T05:28:07.274Z,89.95
2017-04-26T05:28:48.137Z,90.43
2017-04-26T05:29:28.981Z,90.52
2017-04-26T05:30:09.870Z,90.24
2017-04-26T05:30:50.755Z,90.43
2017-04-26T05:31:31.647Z,90.24
2017-04-26T05:32:12.506Z,89.95
2017-04-26T05:32:53.364Z,89.95
2017-04-26T05:33:34.275Z,90.24
2017-04-26T05:34:25.962Z,90.62
2017-04-26T05:35:06.833Z,90.33
2017-04-26T05:35:47.748Z,90.33
2017-04-26T05:36:28.610Z,90.33
2017-04-26T05:37:09.486Z,89.95
2017-04-26T05:37:50.351Z,90.24
2017-04-26T05:38:31.228Z,89.95
2017-04-26T05:39:12.106Z,90.71
2017-04-26T05:39:52.994Z,90.05
2017-04-26T05:40:33.862Z,90.05
2017-04-26T05:41:14.729Z,89.67
2017-04-26T05:41:55.613Z,90.05
2017-04-26T05:42:38.211Z,90.43
2017-04-26T05:43:19.083Z,90.71
2017-04-26T05:43:59.978Z,90.57
2017-04-26T05:44:40.839Z,90.71
2017-04-26T05:45:23.501Z,90.81
2017-04-26T05:46:04.422Z,90.05
2017-04-26T05:46:45.259Z,90.52
2017-04-26T05:47:26.139Z,90.05
2017-04-26T05:48:07.022Z,90.33
2017-04-26T05:48:47.894Z,89.67
2017-04-26T05:49:28.788Z,90.05
2017-04-26T05:50:09.686Z,89.76
2017-04-26T05:50:50.519Z,90.14
2017-04-26T05:51:31.381Z,89.67
2017-04-26T05:52:15.019Z,90.14
2017-04-26T05:52:55.909Z,89.95
2017-04-26T05:53:36.803Z,89.86
2017-04-26T05:54:17.688Z,89.76
2017-04-26T05:54:58.563Z,89.67
2017-04-26T05:55:39.444Z,89.76
2017-04-26T05:56:22.181Z,89.29
2017-04-26T05:57:03.048Z,89.1
2017-04-26T05:57:43.906Z,89.1
2017-04-26T05:58:24.814Z,89.2
2017-04-26T05:59:05.694Z,89.2
2017-04-26T05:59:46.560Z,89.1
2017-04-26T06:00:27.436Z,89.1
2017-04-26T06:01:08.298Z,89.29
2017-04-26T06:01:49.198Z,89.39
2017-04-26T06:02:30.107Z,89.48
2017-04-26T06:03:10.977Z,88.81
2017-04-26T06:03:51.854Z,88.91
2017-04-26T06:04:32.739Z,88.91
2017-04-26T06:05:13.620Z,88.53
2017-04-26T06:05:54.490Z,88.62
2017-04-26T06:06:35.379Z,88.24
2017-04-26T06:08:14.866Z,87.96
2017-04-26T06:41:15.811Z,82.78
2017-04-26T06:41:56.685Z,83.01
2017-04-26T06:42:37.556Z,82.35
2017-04-26T06:43:18.418Z,82.07
2017-04-26T06:45:19.995Z,82.16
2017-04-26T06:49:59.914Z,79.03
2017-04-26T06:50:40.782Z,79.03
2017-04-26T06:51:21.650Z,78.74
2017-04-26T06:52:02.606Z,78.3
2017-04-26T07:13:02.419Z,58.33
2017-04-26T07:13:43.318Z,58.14
2017-04-26T07:14:24.212Z,57.31
2017-04-26T07:15:05.116Z,57.19
2017-04-26T07:15:45.989Z,56.71
2017-04-26T07:16:26.847Z,56.52
2017-04-26T07:17:07.738Z,56.87
2017-04-26T07:17:48.633Z,56.71
2017-04-26T07:18:29.526Z,57.28
2017-04-26T07:19:25.259Z,57
2017-04-26T07:20:06.186Z,57.35
2017-04-26T07:20:47.057Z,57.38
2017-04-26T07:21:27.962Z,57.48
2017-04-26T07:22:08.840Z,57.38
2017-04-26T07:22:49.725Z,57.19
2017-04-26T07:23:30.647Z,57.09
2017-04-26T07:24:11.540Z,56.52
2017-04-26T07:24:52.484Z,56.71
2017-04-26T07:25:33.374Z,56.71
2017-04-26T07:26:14.227Z,55.88
2017-04-26T07:26:55.123Z,55.6
2017-04-26T07:27:36.000Z,55.02
2017-04-26T07:28:16.866Z,55.31
2017-04-26T07:28:57.775Z,54.55
2017-04-26T07:29:38.616Z,54.55
2017-04-26T07:30:19.543Z,54.45
2017-04-26T07:31:00.426Z,54.55
2017-04-26T07:31:41.279Z,54.19
2017-04-26T07:32:22.171Z,53.91
2017-04-26T07:33:03.056Z,53.91
2017-04-26T07:33:43.947Z,53.53
2017-04-26T07:34:24.861Z,53.43
2017-04-26T07:35:05.813Z,53.14
2017-04-26T07:35:46.721Z,53.05
2017-04-26T07:36:27.607Z,51.14
2017-04-26T07:37:08.504Z,50.28
2017-04-26T07:37:51.111Z,50.47
2017-04-26T07:38:32.006Z,50.47
2017-04-26T07:39:12.904Z,50.57
2017-04-26T07:39:53.792Z,50.69
2017-04-26T07:40:34.715Z,49.99
2017-04-26T07:41:15.570Z,50.54
2017-04-26T07:41:56.472Z,51.33
2017-04-26T07:42:37.360Z,51.52
2017-04-26T07:43:18.285Z,51.04
2017-04-26T07:43:59.179Z,49.35
2017-04-26T07:44:40.070Z,47.92
2017-04-26T07:45:24.264Z,47.54
2017-04-26T07:46:05.171Z,46.97
2017-04-26T07:46:46.106Z,46.89
2017-04-26T07:47:26.997Z,47.08
2017-04-26T07:48:07.886Z,46.99
2017-04-26T07:48:48.778Z,46.99
2017-04-26T07:49:30.648Z,46.99
2017-04-26T07:50:11.551Z,46.8
2017-04-26T07:50:54.286Z,46.7
2017-04-26T07:51:35.171Z,46.32
2017-04-26T07:52:16.073Z,46.61
2017-04-26T07:53:01.795Z,46.99
2017-04-26T07:53:42.672Z,46.03
2017-04-26T07:54:23.581Z,45.75
2017-04-26T07:55:04.456Z,45.82
2017-04-26T07:55:45.349Z,45.92
2017-04-26T07:56:26.253Z,45.75
2017-04-26T07:57:07.154Z,45.37
2017-04-26T07:57:50.629Z,44.7
2017-04-26T07:58:31.538Z,45.46
2017-04-26T07:59:12.436Z,45.27
2017-04-26T07:59:53.314Z,45.37
2017-04-26T08:00:34.207Z,46.01
2017-04-26T08:01:15.095Z,46.68
2017-04-26T08:01:56.007Z,46.77
2017-04-26T08:02:36.893Z,46.63
2017-04-26T08:03:17.782Z,48.52
2017-04-26T08:03:59.516Z,50.04
2017-04-26T08:04:40.407Z,50.04
2017-04-26T08:05:21.331Z,49.78
2017-04-26T08:06:02.207Z,48.92
2017-04-26T08:06:43.126Z,47.89
2017-04-26T08:07:24.012Z,46.47
2017-04-26T08:08:04.874Z,46.06
2017-04-26T08:08:45.772Z,46.32
2017-04-26T08:09:26.658Z,47.47
2017-04-26T08:10:07.561Z,47.39
2017-04-26T08:10:48.453Z,47.03
2017-04-26T08:11:29.315Z,45.89
2017-04-26T08:12:10.181Z,45.61
2017-04-26T08:12:51.047Z,45.7
2017-04-26T08:13:31.924Z,45.34
2017-04-26T08:14:12.910Z,45.63
2017-04-26T08:14:53.846Z,44.58
2017-04-26T08:15:34.716Z,44.58
2017-04-26T08:16:15.602Z,44.12
2017-04-26T08:16:56.513Z,43.93
2017-04-26T08:17:37.404Z,43.36
2017-04-26T08:18:18.317Z,42.71
2017-04-26T08:18:59.215Z,41.35
2017-04-26T08:19:40.097Z,41.64
2017-04-26T08:20:20.972Z,41.45
2017-04-26T08:21:01.892Z,41.66
2017-04-26T08:21:42.819Z,40.61
2017-04-26T08:22:23.689Z,40.99
2017-04-26T08:23:04.553Z,40.63
2017-04-26T08:23:45.448Z,40.72
2017-04-26T08:24:29.042Z,40.89
2017-04-26T08:25:09.928Z,40.7
2017-04-26T08:25:50.846Z,40.69
2017-04-26T08:26:31.710Z,42.02
2017-04-26T08:27:12.567Z,41.55
2017-04-26T08:27:53.450Z,40.7
2017-04-26T08:28:34.339Z,41.09
2017-04-26T08:29:15.222Z,40.52
2017-04-26T08:29:56.105Z,40.25
2017-04-26T08:30:37.050Z,39.77
2017-04-26T08:31:17.910Z,39.39
2017-04-26T08:31:58.786Z,39.5
2017-04-26T08:32:39.673Z,38.54
2017-04-26T08:33:20.574Z,38.26
2017-04-26T08:34:01.455Z,38.17
2017-04-26T08:34:42.379Z,38.07
2017-04-26T08:35:23.233Z,38.43
2017-04-26T08:36:04.141Z,38.81
2017-04-26T08:36:45.051Z,39.03
2017-04-26T08:37:25.938Z,39.12
2017-04-26T08:38:06.812Z,38.91
2017-04-26T08:38:47.697Z,39.1
2017-04-26T08:39:28.586Z,39.39
2017-04-26T08:40:09.479Z,39.39
2017-04-26T08:40:50.376Z,40.23
2017-04-26T08:41:31.268Z,40.3
2017-04-26T08:42:12.134Z,40.78
2017-04-26T08:42:53.024Z,41.81
2017-04-26T08:43:33.905Z,41.91
2017-04-26T08:44:14.817Z,42.46
2017-04-26T08:44:55.658Z,42.93
2017-04-26T08:45:36.574Z,43.77
2017-04-26T08:46:17.455Z,43.68
2017-04-26T08:46:58.335Z,44.63
2017-04-26T08:47:39.196Z,45.01
2017-04-26T08:48:20.075Z,45.1
2017-04-26T08:49:00.919Z,44.27
2017-04-26T08:49:41.800Z,43.05
2017-04-26T08:50:22.692Z,43.05
2017-04-26T08:51:03.675Z,42.86
2017-04-26T08:51:44.551Z,41.93
2017-04-26T08:52:25.430Z,41.55
2017-04-26T08:53:06.294Z,40.49
2017-04-26T08:53:47.187Z,39.32
2017-04-26T08:54:28.094Z,39.14
2017-04-26T08:55:08.967Z,39.02
2017-04-26T08:55:49.862Z,39.22
2017-04-26T08:56:31.545Z,39.78
2017-04-26T08:57:12.426Z,40.17
2017-04-26T08:57:53.318Z,40.57
2017-04-26T08:58:34.191Z,40.45
2017-04-26T08:59:15.092Z,40.17
2017-04-26T08:59:55.963Z,39.88
2017-04-26T09:00:36.866Z,39.81
2017-04-26T09:01:17.727Z,39.42
2017-04-26T09:01:58.598Z,39.23
2017-04-26T09:02:39.491Z,38.37
2017-04-26T09:03:20.383Z,38.37
2017-04-26T09:04:01.257Z,38.56
2017-04-26T09:04:42.357Z,38.47
2017-04-26T09:05:23.249Z,38.47
2017-04-26T09:06:04.894Z,38.1
2017-04-26T09:06:45.751Z,38.1
2017-04-26T09:07:26.632Z,37.55
2017-04-26T09:08:07.751Z,37.65
2017-04-26T09:08:48.742Z,37.66
2017-04-26T09:09:29.913Z,36.9
2017-04-26T09:10:10.806Z,36.15
2017-04-26T09:10:51.648Z,36.44
2017-04-26T09:11:32.539Z,35.77
2017-04-26T09:12:13.403Z,34.13
2017-04-26T09:12:54.290Z,35.1
2017-04-26T09:13:35.173Z,35.2
2017-04-26T09:14:16.061Z,34.89
2017-04-26T09:14:56.944Z,35.47
2017-04-26T09:15:37.826Z,36.06
2017-04-26T09:16:18.692Z,36.46
2017-04-26T09:16:59.565Z,35.98
2017-04-26T09:17:40.429Z,35.02
2017-04-26T09:18:21.360Z,34.93
2017-04-26T09:19:02.235Z,35.1
2017-04-26T09:19:43.100Z,34.63
2017-04-26T09:20:23.987Z,34.51
2017-04-26T09:21:04.887Z,35.47
2017-04-26T09:21:45.804Z,36.43
2017-04-26T09:22:26.721Z,36.71
2017-04-26T09:23:07.602Z,37.26
2017-04-26T09:23:48.486Z,37.46
2017-04-26T09:24:29.388Z,36.69
2017-04-26T09:25:10.268Z,37.46
2017-04-26T09:25:51.157Z,37.15
2017-04-26T09:26:32.041Z,37.07
2017-04-26T09:27:12.935Z,37.26
2017-04-26T09:27:53.829Z,36.79
2017-04-26T09:28:34.732Z,36.31
2017-04-26T09:29:15.598Z,36.71
2017-04-26T09:29:56.488Z,36.04
2017-04-26T09:30:37.379Z,35.47
2017-04-26T09:31:18.261Z,35
2017-04-26T09:31:59.146Z,34.91
2017-04-26T09:32:40.043Z,34.81
2017-04-26T09:33:20.911Z,34.91
2017-04-26T09:34:01.776Z,35
2017-04-26T09:34:42.704Z,36.04
2017-04-26T09:35:23.578Z,36.43
2017-04-26T09:36:04.461Z,37.26
2017-04-26T09:36:45.361Z,38.32
2017-04-26T09:37:26.262Z,37.84
2017-04-26T09:38:07.127Z,38.01
2017-04-26T09:38:48.016Z,38.78
2017-04-26T09:39:28.909Z,38.7
2017-04-26T09:40:09.776Z,38.01
2017-04-26T09:40:50.684Z,38.39
2017-04-26T09:41:31.567Z,38.68
2017-04-26T09:42:12.451Z,37.63
2017-04-26T09:42:53.341Z,36.66
2017-04-26T09:43:34.235Z,36.27
2017-04-26T09:44:15.153Z,36.46
2017-04-26T09:44:56.040Z,37.13
2017-04-26T09:45:36.921Z,36.66
2017-04-26T09:46:17.802Z,36.68
2017-04-26T09:46:58.688Z,36.02
2017-04-26T09:47:39.572Z,34.88
2017-04-26T09:48:20.550Z,34.4
2017-04-26T09:49:01.407Z,34.3
2017-04-26T09:49:42.296Z,34.11
2017-04-26T09:50:23.180Z,34.95
2017-04-26T09:51:04.070Z,35.43
2017-04-26T09:51:44.975Z,35.82
2017-04-26T09:52:25.864Z,36.18
2017-04-26T09:53:06.751Z,36.27
2017-04-26T09:53:47.635Z,36.77
2017-04-26T09:54:28.504Z,36.39
2017-04-26T09:55:09.379Z,36.68
2017-04-26T09:55:50.264Z,37.42
2017-04-26T09:56:31.151Z,37.23
2017-04-26T09:57:12.632Z,37.44
2017-04-26T09:57:53.513Z,37.34
2017-04-26T09:58:34.421Z,36.98
2017-04-26T09:59:15.346Z,35.16
2017-04-26T09:59:56.248Z,34.59
2017-04-26T10:00:37.145Z,33.35
2017-04-26T10:01:18.038Z,33.07
2017-04-26T10:01:58.932Z,32.6
2017-04-26T10:02:39.814Z,32.6
2017-04-26T10:03:20.707Z,32.03
2017-04-26T10:04:01.594Z,31.84
2017-04-26T10:04:42.514Z,31.64
2017-04-26T10:05:23.393Z,31.93
2017-04-26T10:06:04.282Z,30.98
2017-04-26T10:06:45.189Z,30.78
2017-04-26T10:07:26.123Z,31.16
2017-04-26T10:08:07.006Z,31.16
2017-04-26T10:08:47.912Z,31.64
2017-04-26T10:09:28.792Z,31.85
2017-04-26T10:10:09.689Z,31.95
2017-04-26T10:10:50.577Z,31.09
2017-04-26T10:11:31.464Z,30.8
2017-04-26T10:12:12.357Z,30.3
2017-04-26T10:12:53.275Z,30.19
2017-04-26T10:13:34.164Z,31.61
2017-04-26T10:14:15.063Z,32.29
2017-04-26T10:14:55.945Z,32.47
2017-04-26T10:15:36.833Z,32.86
2017-04-26T10:16:17.720Z,33.42
2017-04-26T10:16:58.612Z,34.28
2017-04-26T10:17:39.491Z,34.09
2017-04-26T10:18:20.370Z,34.36
2017-04-26T10:19:01.264Z,34.46
2017-04-26T10:19:42.153Z,34.86
2017-04-26T10:20:23.047Z,34.77
2017-04-26T10:21:03.932Z,34.86
2017-04-26T10:21:44.858Z,34.77
2017-04-26T10:22:25.702Z,35.13
2017-04-26T10:23:06.585Z,35.8
2017-04-26T10:23:47.465Z,35.89
2017-04-26T10:24:28.349Z,35.99
2017-04-26T10:25:09.242Z,35.8
2017-04-26T10:25:50.144Z,36.75
2017-04-26T10:26:31.036Z,36.66
2017-04-26T10:27:11.925Z,36.66
2017-04-26T10:27:52.808Z,36.27
2017-04-26T10:28:33.676Z,36.37
2017-04-26T10:29:14.561Z,35.41
2017-04-26T10:29:55.445Z,35.41
2017-04-26T10:30:36.341Z,36.08
2017-04-26T10:31:17.211Z,35.7
2017-04-26T10:31:58.093Z,36.27
2017-04-26T10:32:38.970Z,35.89
2017-04-26T10:33:19.846Z,35.89
2017-04-26T10:34:00.941Z,35.7
2017-04-26T10:34:41.866Z,35.22
2017-04-26T10:35:22.502Z,34.84
2017-04-26T10:36:03.403Z,34.36
2017-04-26T10:36:44.264Z,33.79
2017-04-26T10:37:25.165Z,33.78
2017-04-26T10:38:06.055Z,34.17
2017-04-26T10:38:46.911Z,34.17
2017-04-26T10:39:27.787Z,34.65
2017-04-26T10:40:08.682Z,34.84
2017-04-26T10:40:49.562Z,34.65
2017-04-26T10:41:30.454Z,35.13
2017-04-26T10:42:11.371Z,34.36
2017-04-26T10:42:52.225Z,34.75
2017-04-26T10:44:25.483Z,34.73
2017-04-26T10:46:13.725Z,37.21
2017-04-26T10:46:54.626Z,37.12
2017-04-26T10:47:35.518Z,37.49
2017-04-26T10:48:16.402Z,37.49
2017-04-26T10:48:57.270Z,37.66
2017-04-26T10:49:38.148Z,37.95
2017-04-26T10:50:19.057Z,38.53
2017-04-26T10:51:02.562Z,38.53
2017-04-26T10:51:43.434Z,38.81
2017-04-26T10:52:24.336Z,38.93
2017-04-26T10:53:05.191Z,39.22
2017-04-26T10:53:46.082Z,38.83
2017-04-26T10:54:26.986Z,38.81
2017-04-26T10:55:07.883Z,38.83
2017-04-26T10:55:50.442Z,38.91
2017-04-26T10:56:31.324Z,39
2017-04-26T10:57:12.200Z,39.48
2017-04-26T10:57:53.101Z,39.69
2017-04-26T10:58:34.068Z,39.31
2017-04-26T10:59:14.952Z,39.69
2017-04-26T10:59:55.811Z,39.59
2017-04-26T11:00:36.691Z,39.5
2017-04-26T11:01:17.573Z,39.78
2017-04-26T11:01:58.450Z,39.95
2017-04-26T11:04:12.191Z,40.72
2017-04-26T11:04:53.104Z,40.91
2017-04-26T11:06:22.174Z,40.72
2017-04-26T11:07:03.054Z,40.91
2017-04-26T11:07:43.931Z,40.72
2017-04-26T11:08:24.817Z,40.45
2017-04-26T11:09:05.694Z,39.98
2017-04-26T11:09:46.572Z,40.26
2017-04-26T11:10:27.443Z,40.15
2017-04-26T11:11:08.325Z,40.15
2017-04-26T11:11:49.211Z,40.34
2017-04-26T11:12:30.071Z,40.64
2017-04-26T11:13:10.945Z,40.36
2017-04-26T11:13:51.832Z,39.78
2017-04-26T11:14:32.710Z,39.4
2017-04-26T11:15:20.527Z,38.71
2017-04-26T11:16:01.410Z,39.29
2017-04-26T11:16:42.275Z,39.29
2017-04-26T11:17:23.158Z,39.48
2017-04-26T11:18:04.023Z,39.12
2017-04-26T11:18:44.905Z,39.86
2017-04-26T11:19:25.778Z,39.19
2017-04-26T11:20:06.718Z,39
2017-04-26T11:20:47.626Z,39
2017-04-26T11:21:28.495Z,38.62
2017-04-26T11:22:09.401Z,38.43
2017-04-26T11:22:51.622Z,38.45
2017-04-26T11:23:31.164Z,37.88
2017-04-26T11:24:12.070Z,37.59
2017-04-26T11:24:52.954Z,37.49
2017-04-26T11:25:33.837Z,37.95
2017-04-26T11:26:19.531Z,38.7
2017-04-26T11:27:00.406Z,38.89
2017-04-26T11:27:41.274Z,39.1
2017-04-26T11:28:22.159Z,39.19
2017-04-26T11:29:03.048Z,38.91
2017-04-26T11:29:43.912Z,39.1
2017-04-26T11:30:24.756Z,38.53
2017-04-26T11:31:05.642Z,38.93
2017-04-26T11:31:46.503Z,38.54
2017-04-26T11:32:27.353Z,38.64
2017-04-26T11:33:08.225Z,38.53
2017-04-26T11:33:49.105Z,38.81
2017-04-26T11:34:30.001Z,39.39
2017-04-26T11:35:10.885Z,39.86
2017-04-26T11:35:51.765Z,39.29
2017-04-26T11:36:32.639Z,39
2017-04-26T11:37:13.523Z,38.62
2017-04-26T11:37:54.408Z,38.71
2017-04-26T11:38:35.276Z,38.71
2017-04-26T11:39:16.162Z,38.45
2017-04-26T11:39:57.037Z,38.07
2017-04-26T11:40:37.926Z,37.88
2017-04-26T11:41:18.792Z,37.21
2017-04-26T11:41:59.658Z,37.12
2017-04-26T11:42:40.542Z,37.12
2017-04-26T11:43:21.414Z,37.19
2017-04-26T11:44:02.277Z,37.3
2017-04-26T11:44:43.148Z,37.1
2017-04-26T11:45:24.033Z,37.49
2017-04-26T11:46:04.907Z,37.49
2017-04-26T11:46:45.774Z,37.19
2017-04-26T11:47:26.645Z,37.4
2017-04-26T11:48:07.507Z,37.59
2017-04-26T11:48:48.371Z,37.59
2017-04-26T11:49:29.264Z,37.3